sensor_id;sensor_type;location;lat;lon;timestamp;temperature;humidity
3071;DHT22;1546;47.208;9.038;2023-04-25T00:01:39;9.50;99.90
3071;DHT22;1546;47.208;9.038;2023-04-25T00:04:06;9.60;99.90
3071;DHT22;1546;47.208;9.038;2023-04-25T00:06:34;9.60;99.90
3071;DHT22;1546;47.208;9.038;2023-04-25T00:09:03;9.60;99.90
3071;DHT22;1546;47.208;9.038;2023-04-25T00:11:32;9.50;99.90
3071;DHT22;1546;47.208;9.038;2023-04-25T00:13:59;9.60;99.90
3071;DHT22;1546;47.208;9.038;2023-04-25T00:16:28;9.70;99.90
3071;DHT22;1546;47.208;9.038;2023-04-25T00:18:58;9.70;99.90
3071;DHT22;1546;47.208;9.038;2023-04-25T00:21:25;9.70;99.90
3071;DHT22;1546;47.208;9.038;2023-04-25T00:23:54;9.80;99.90
3071;DHT22;1546;47.208;9.038;2023-04-25T00:26:22;9.80;99.90
3071;DHT22;1546;47.208;9.038;2023-04-25T00:28:50;9.80;99.90
3071;DHT22;1546;47.208;9.038;2023-04-25T00:31:17;9.70;99.90
3071;DHT22;1546;47.208;9.038;2023-04-25T00:33:44;9.50;99.90
3071;DHT22;1546;47.208;9.038;2023-04-25T00:36:11;9.60;99.90
3071;DHT22;1546;47.208;9.038;2023-04-25T00:38:37;9.50;99.90
3071;DHT22;1546;47.208;9.038;2023-04-25T00:41:05;9.50;99.90
3071;DHT22;1546;47.208;9.038;2023-04-25T00:43:34;9.40;99.90
3071;DHT22;1546;47.208;9.038;2023-04-25T00:46:02;9.40;99.90
3071;DHT22;1546;47.208;9.038;2023-04-25T00:48:29;9.50;99.90
3071;DHT22;1546;47.208;9.038;2023-04-25T00:50:58;9.60;99.90
3071;DHT22;1546;47.208;9.038;2023-04-25T00:53:27;9.60;99.90
3071;DHT22;1546;47.208;9.038;2023-04-25T00:55:54;9.60;99.90
3071;DHT22;1546;47.208;9.038;2023-04-25T00:58:22;9.60;99.90
3071;DHT22;1546;47.208;9.038;2023-04-25T01:00:51;9.60;99.90
3071;DHT22;1546;47.208;9.038;2023-04-25T01:03:18;9.70;99.90
3071;DHT22;1546;47.208;9.038;2023-04-25T01:05:46;9.60;99.90
3071;DHT22;1546;47.208;9.038;2023-04-25T01:08:14;9.70;99.90
3071;DHT22;1546;47.208;9.038;2023-04-25T01:10:41;9.60;99.90
3071;DHT22;1546;47.208;9.038;2023-04-25T01:13:08;9.50;99.90
3071;DHT22;1546;47.208;9.038;2023-04-25T01:15:35;9.50;99.90
3071;DHT22;1546;47.208;9.038;2023-04-25T01:18:04;9.50;99.90
3071;DHT22;1546;47.208;9.038;2023-04-25T01:20:32;9.60;99.90
3071;DHT22;1546;47.208;9.038;2023-04-25T01:23:00;9.60;99.90
3071;DHT22;1546;47.208;9.038;2023-04-25T01:25:29;9.70;99.90
3071;DHT22;1546;47.208;9.038;2023-04-25T01:27:56;9.60;99.90
3071;DHT22;1546;47.208;9.038;2023-04-25T01:30:24;9.60;99.90
3071;DHT22;1546;47.208;9.038;2023-04-25T01:32:54;9.60;99.90
3071;DHT22;1546;47.208;9.038;2023-04-25T01:35:21;9.60;99.90
3071;DHT22;1546;47.208;9.038;2023-04-25T01:37:49;9.40;99.90
3071;DHT22;1546;47.208;9.038;2023-04-25T01:40:20;9.20;99.90
3071;DHT22;1546;47.208;9.038;2023-04-25T01:42:48;9.20;99.90
3071;DHT22;1546;47.208;9.038;2023-04-25T01:45:15;9.20;99.90
3071;DHT22;1546;47.208;9.038;2023-04-25T01:47:42;9.20;99.90
3071;DHT22;1546;47.208;9.038;2023-04-25T01:50:12;9.40;99.90
3071;DHT22;1546;47.208;9.038;2023-04-25T01:52:39;9.40;99.90
3071;DHT22;1546;47.208;9.038;2023-04-25T01:55:07;9.60;99.90
3071;DHT22;1546;47.208;9.038;2023-04-25T01:57:35;9.60;99.90
3071;DHT22;1546;47.208;9.038;2023-04-25T02:00:04;9.50;99.90
3071;DHT22;1546;47.208;9.038;2023-04-25T02:02:32;9.30;99.90
3071;DHT22;1546;47.208;9.038;2023-04-25T02:04:58;9.30;99.90
3071;DHT22;1546;47.208;9.038;2023-04-25T02:07:26;9.20;99.90
3071;DHT22;1546;47.208;9.038;2023-04-25T02:09:53;9.10;99.90
3071;DHT22;1546;47.208;9.038;2023-04-25T02:12:20;9.00;99.90
3071;DHT22;1546;47.208;9.038;2023-04-25T02:14:48;8.90;99.90
3071;DHT22;1546;47.208;9.038;2023-04-25T02:17:15;9.20;99.90
3071;DHT22;1546;47.208;9.038;2023-04-25T02:19:43;9.20;99.90
3071;DHT22;1546;47.208;9.038;2023-04-25T02:22:10;9.20;99.90
3071;DHT22;1546;47.208;9.038;2023-04-25T02:24:37;9.40;99.90
3071;DHT22;1546;47.208;9.038;2023-04-25T02:27:04;9.40;99.90
3071;DHT22;1546;47.208;9.038;2023-04-25T02:29:31;9.40;99.90
3071;DHT22;1546;47.208;9.038;2023-04-25T02:31:59;9.50;99.90
3071;DHT22;1546;47.208;9.038;2023-04-25T02:34:26;9.50;99.90
3071;DHT22;1546;47.208;9.038;2023-04-25T02:36:52;9.50;99.90
3071;DHT22;1546;47.208;9.038;2023-04-25T02:39:20;9.50;99.90
3071;DHT22;1546;47.208;9.038;2023-04-25T02:41:47;9.60;99.90
3071;DHT22;1546;47.208;9.038;2023-04-25T02:44:14;9.50;99.90
3071;DHT22;1546;47.208;9.038;2023-04-25T02:46:41;9.40;99.90
3071;DHT22;1546;47.208;9.038;2023-04-25T02:49:09;9.30;99.90
3071;DHT22;1546;47.208;9.038;2023-04-25T02:51:36;9.20;99.90
3071;DHT22;1546;47.208;9.038;2023-04-25T02:54:03;9.30;99.90
3071;DHT22;1546;47.208;9.038;2023-04-25T02:56:30;9.30;99.90
3071;DHT22;1546;47.208;9.038;2023-04-25T02:58:57;9.40;99.90
3071;DHT22;1546;47.208;9.038;2023-04-25T03:01:24;9.60;99.90
3071;DHT22;1546;47.208;9.038;2023-04-25T03:03:51;9.60;99.90
3071;DHT22;1546;47.208;9.038;2023-04-25T03:06:19;9.60;99.90
3071;DHT22;1546;47.208;9.038;2023-04-25T03:08:46;9.60;99.90
3071;DHT22;1546;47.208;9.038;2023-04-25T03:11:13;9.60;99.90
3071;DHT22;1546;47.208;9.038;2023-04-25T03:13:40;9.60;99.90
3071;DHT22;1546;47.208;9.038;2023-04-25T03:16:06;9.60;99.90
3071;DHT22;1546;47.208;9.038;2023-04-25T03:18:33;9.70;99.90
3071;DHT22;1546;47.208;9.038;2023-04-25T03:21:00;9.70;99.90
3071;DHT22;1546;47.208;9.038;2023-04-25T03:23:28;9.70;99.90
3071;DHT22;1546;47.208;9.038;2023-04-25T03:25:55;9.60;99.90
3071;DHT22;1546;47.208;9.038;2023-04-25T03:28:22;9.70;99.90
3071;DHT22;1546;47.208;9.038;2023-04-25T03:30:49;9.70;99.90
3071;DHT22;1546;47.208;9.038;2023-04-25T03:33:16;9.60;99.90
3071;DHT22;1546;47.208;9.038;2023-04-25T03:35:43;9.50;99.90
3071;DHT22;1546;47.208;9.038;2023-04-25T03:38:09;9.70;99.90
3071;DHT22;1546;47.208;9.038;2023-04-25T03:40:38;9.80;99.90
3071;DHT22;1546;47.208;9.038;2023-04-25T03:43:05;9.90;99.90
3071;DHT22;1546;47.208;9.038;2023-04-25T03:45:31;9.90;99.90
3071;DHT22;1546;47.208;9.038;2023-04-25T03:47:58;9.90;99.90
3071;DHT22;1546;47.208;9.038;2023-04-25T03:50:25;9.70;99.90
3071;DHT22;1546;47.208;9.038;2023-04-25T03:52:52;9.50;99.90
3071;DHT22;1546;47.208;9.038;2023-04-25T03:55:19;9.40;99.90
3071;DHT22;1546;47.208;9.038;2023-04-25T03:57:47;9.30;99.90
3071;DHT22;1546;47.208;9.038;2023-04-25T04:00:15;9.20;99.90
3071;DHT22;1546;47.208;9.038;2023-04-25T04:02:41;9.20;99.90
3071;DHT22;1546;47.208;9.038;2023-04-25T04:05:08;9.20;99.90
3071;DHT22;1546;47.208;9.038;2023-04-25T04:07:35;9.00;99.90
3071;DHT22;1546;47.208;9.038;2023-04-25T04:10:06;8.90;99.90
3071;DHT22;1546;47.208;9.038;2023-04-25T04:12:33;8.70;99.90
3071;DHT22;1546;47.208;9.038;2023-04-25T04:15:01;8.70;99.90
3071;DHT22;1546;47.208;9.038;2023-04-25T04:17:28;8.70;99.90
3071;DHT22;1546;47.208;9.038;2023-04-25T04:19:55;8.70;99.90
3071;DHT22;1546;47.208;9.038;2023-04-25T04:22:22;8.70;99.90
3071;DHT22;1546;47.208;9.038;2023-04-25T04:24:49;8.70;99.90
3071;DHT22;1546;47.208;9.038;2023-04-25T04:27:18;8.90;99.90
3071;DHT22;1546;47.208;9.038;2023-04-25T04:29:46;8.90;99.90
3071;DHT22;1546;47.208;9.038;2023-04-25T04:32:14;9.00;99.90
3071;DHT22;1546;47.208;9.038;2023-04-25T04:34:42;9.20;99.90
3071;DHT22;1546;47.208;9.038;2023-04-25T04:37:10;9.20;99.90
3071;DHT22;1546;47.208;9.038;2023-04-25T04:39:38;9.00;99.90
3071;DHT22;1546;47.208;9.038;2023-04-25T04:42:05;9.10;99.90
3071;DHT22;1546;47.208;9.038;2023-04-25T04:44:32;9.10;99.90
3071;DHT22;1546;47.208;9.038;2023-04-25T04:46:59;9.10;99.90
3071;DHT22;1546;47.208;9.038;2023-04-25T04:49:28;9.40;99.90
3071;DHT22;1546;47.208;9.038;2023-04-25T04:51:55;9.50;99.90
3071;DHT22;1546;47.208;9.038;2023-04-25T04:54:22;9.50;99.90
3071;DHT22;1546;47.208;9.038;2023-04-25T04:56:49;9.30;99.90
3071;DHT22;1546;47.208;9.038;2023-04-25T04:59:16;9.20;99.90
3071;DHT22;1546;47.208;9.038;2023-04-25T05:01:43;9.40;99.90
3071;DHT22;1546;47.208;9.038;2023-04-25T05:04:11;9.40;99.90
3071;DHT22;1546;47.208;9.038;2023-04-25T05:06:39;9.40;99.90
3071;DHT22;1546;47.208;9.038;2023-04-25T05:09:06;9.30;99.90
3071;DHT22;1546;47.208;9.038;2023-04-25T05:11:33;9.30;99.90
3071;DHT22;1546;47.208;9.038;2023-04-25T05:14:00;9.40;99.90
3071;DHT22;1546;47.208;9.038;2023-04-25T05:16:27;9.40;99.90
3071;DHT22;1546;47.208;9.038;2023-04-25T05:18:53;9.20;99.90
3071;DHT22;1546;47.208;9.038;2023-04-25T05:21:20;9.30;99.90
3071;DHT22;1546;47.208;9.038;2023-04-25T05:23:49;9.20;99.90
3071;DHT22;1546;47.208;9.038;2023-04-25T05:26:16;9.20;99.90
3071;DHT22;1546;47.208;9.038;2023-04-25T05:28:42;9.40;99.90
3071;DHT22;1546;47.208;9.038;2023-04-25T05:31:09;9.40;99.90
3071;DHT22;1546;47.208;9.038;2023-04-25T05:33:36;9.30;99.90
3071;DHT22;1546;47.208;9.038;2023-04-25T05:36:04;9.30;99.90
3071;DHT22;1546;47.208;9.038;2023-04-25T05:38:31;9.40;99.90
3071;DHT22;1546;47.208;9.038;2023-04-25T05:41:00;9.60;99.90
3071;DHT22;1546;47.208;9.038;2023-04-25T05:43:27;9.60;99.90
3071;DHT22;1546;47.208;9.038;2023-04-25T05:45:53;9.60;99.90
3071;DHT22;1546;47.208;9.038;2023-04-25T05:48:20;9.70;99.90
3071;DHT22;1546;47.208;9.038;2023-04-25T05:50:47;9.70;99.90
3071;DHT22;1546;47.208;9.038;2023-04-25T05:53:14;9.70;99.90
3071;DHT22;1546;47.208;9.038;2023-04-25T05:55:41;9.70;99.90
3071;DHT22;1546;47.208;9.038;2023-04-25T05:58:09;9.80;99.90
3071;DHT22;1546;47.208;9.038;2023-04-25T06:00:36;9.90;99.90
3071;DHT22;1546;47.208;9.038;2023-04-25T06:03:03;10.10;99.90
3071;DHT22;1546;47.208;9.038;2023-04-25T06:05:29;10.40;99.90
3071;DHT22;1546;47.208;9.038;2023-04-25T06:07:56;10.80;99.90
3071;DHT22;1546;47.208;9.038;2023-04-25T06:10:23;11.10;99.90
3071;DHT22;1546;47.208;9.038;2023-04-25T06:12:50;11.10;98.70
3071;DHT22;1546;47.208;9.038;2023-04-25T06:15:19;11.20;99.00
3071;DHT22;1546;47.208;9.038;2023-04-25T06:17:45;11.40;97.50
3071;DHT22;1546;47.208;9.038;2023-04-25T06:20:12;11.60;96.70
3071;DHT22;1546;47.208;9.038;2023-04-25T06:22:39;11.80;98.10
3071;DHT22;1546;47.208;9.038;2023-04-25T06:25:07;11.90;98.10
3071;DHT22;1546;47.208;9.038;2023-04-25T06:27:34;12.10;98.40
3071;DHT22;1546;47.208;9.038;2023-04-25T06:30:00;12.40;96.80
3071;DHT22;1546;47.208;9.038;2023-04-25T06:32:29;12.70;96.70
3071;DHT22;1546;47.208;9.038;2023-04-25T06:34:55;12.60;95.60
3071;DHT22;1546;47.208;9.038;2023-04-25T06:37:23;12.50;95.10
3071;DHT22;1546;47.208;9.038;2023-04-25T06:39:50;12.40;94.90
3071;DHT22;1546;47.208;9.038;2023-04-25T06:42:17;12.50;94.80
3071;DHT22;1546;47.208;9.038;2023-04-25T06:44:44;12.80;94.70
3071;DHT22;1546;47.208;9.038;2023-04-25T06:47:11;12.90;93.40
3071;DHT22;1546;47.208;9.038;2023-04-25T06:49:39;12.70;93.90
3071;DHT22;1546;47.208;9.038;2023-04-25T06:52:07;12.40;95.00
3071;DHT22;1546;47.208;9.038;2023-04-25T06:54:33;12.10;95.40
3071;DHT22;1546;47.208;9.038;2023-04-25T06:57:00;11.70;95.90
3071;DHT22;1546;47.208;9.038;2023-04-25T06:59:28;11.30;96.40
3071;DHT22;1546;47.208;9.038;2023-04-25T07:01:54;11.00;97.00
3071;DHT22;1546;47.208;9.038;2023-04-25T07:04:21;10.90;97.80
3071;DHT22;1546;47.208;9.038;2023-04-25T07:06:49;10.80;98.00
3071;DHT22;1546;47.208;9.038;2023-04-25T07:09:16;10.80;99.20
3071;DHT22;1546;47.208;9.038;2023-04-25T07:11:43;10.90;99.70
3071;DHT22;1546;47.208;9.038;2023-04-25T07:14:10;11.00;99.60
3071;DHT22;1546;47.208;9.038;2023-04-25T07:16:37;11.00;99.10
3071;DHT22;1546;47.208;9.038;2023-04-25T07:19:03;10.90;99.90
3071;DHT22;1546;47.208;9.038;2023-04-25T07:21:30;10.60;99.90
3071;DHT22;1546;47.208;9.038;2023-04-25T07:23:59;10.10;99.90
3071;DHT22;1546;47.208;9.038;2023-04-25T07:26:26;9.70;99.90
3071;DHT22;1546;47.208;9.038;2023-04-25T07:28:53;9.40;99.90
3071;DHT22;1546;47.208;9.038;2023-04-25T07:31:20;9.10;99.90
3071;DHT22;1546;47.208;9.038;2023-04-25T07:33:47;9.00;99.90
3071;DHT22;1546;47.208;9.038;2023-04-25T07:36:14;8.90;99.90
3071;DHT22;1546;47.208;9.038;2023-04-25T07:38:41;8.60;99.90
3071;DHT22;1546;47.208;9.038;2023-04-25T07:41:09;8.40;99.90
3071;DHT22;1546;47.208;9.038;2023-04-25T07:43:36;8.00;99.90
3071;DHT22;1546;47.208;9.038;2023-04-25T07:46:04;7.90;99.90
3071;DHT22;1546;47.208;9.038;2023-04-25T07:48:30;7.90;99.90
3071;DHT22;1546;47.208;9.038;2023-04-25T07:50:57;7.90;99.90
3071;DHT22;1546;47.208;9.038;2023-04-25T07:53:24;8.10;99.90
3071;DHT22;1546;47.208;9.038;2023-04-25T07:55:51;8.10;99.90
3071;DHT22;1546;47.208;9.038;2023-04-25T07:58:19;8.30;99.90
3071;DHT22;1546;47.208;9.038;2023-04-25T08:00:47;8.30;99.90
3071;DHT22;1546;47.208;9.038;2023-04-25T08:03:14;8.30;99.90
3071;DHT22;1546;47.208;9.038;2023-04-25T08:05:41;8.10;99.90
3071;DHT22;1546;47.208;9.038;2023-04-25T08:08:08;8.00;99.90
3071;DHT22;1546;47.208;9.038;2023-04-25T08:10:35;8.10;99.90
3071;DHT22;1546;47.208;9.038;2023-04-25T08:13:02;8.20;99.90
3071;DHT22;1546;47.208;9.038;2023-04-25T08:15:30;8.10;99.90
3071;DHT22;1546;47.208;9.038;2023-04-25T08:17:57;8.20;99.90
3071;DHT22;1546;47.208;9.038;2023-04-25T08:20:25;8.20;99.90
3071;DHT22;1546;47.208;9.038;2023-04-25T08:22:51;8.20;99.90
3071;DHT22;1546;47.208;9.038;2023-04-25T08:25:18;8.10;99.90
3071;DHT22;1546;47.208;9.038;2023-04-25T08:27:45;8.10;99.90
3071;DHT22;1546;47.208;9.038;2023-04-25T08:30:12;8.10;99.90
3071;DHT22;1546;47.208;9.038;2023-04-25T08:32:41;8.00;99.90
3071;DHT22;1546;47.208;9.038;2023-04-25T08:35:09;8.00;99.90
3071;DHT22;1546;47.208;9.038;2023-04-25T08:37:36;8.10;99.90
3071;DHT22;1546;47.208;9.038;2023-04-25T08:40:04;8.20;99.90
3071;DHT22;1546;47.208;9.038;2023-04-25T08:42:33;8.20;99.90
3071;DHT22;1546;47.208;9.038;2023-04-25T08:45:02;8.20;99.90
3071;DHT22;1546;47.208;9.038;2023-04-25T08:47:30;8.10;99.90
3071;DHT22;1546;47.208;9.038;2023-04-25T08:50:02;7.90;99.90
3071;DHT22;1546;47.208;9.038;2023-04-25T08:52:36;8.00;99.90
3071;DHT22;1546;47.208;9.038;2023-04-25T08:55:05;8.00;99.90
3071;DHT22;1546;47.208;9.038;2023-04-25T08:57:34;8.00;99.90
3071;DHT22;1546;47.208;9.038;2023-04-25T09:00:02;8.10;99.90
3071;DHT22;1546;47.208;9.038;2023-04-25T09:02:30;8.30;99.90
3071;DHT22;1546;47.208;9.038;2023-04-25T09:04:57;8.40;99.90
3071;DHT22;1546;47.208;9.038;2023-04-25T09:07:25;8.60;99.90
3071;DHT22;1546;47.208;9.038;2023-04-25T09:09:52;8.90;99.90
3071;DHT22;1546;47.208;9.038;2023-04-25T09:12:19;9.00;99.90
3071;DHT22;1546;47.208;9.038;2023-04-25T09:15:02;9.20;99.90
3071;DHT22;1546;47.208;9.038;2023-04-25T09:17:29;9.50;99.90
3071;DHT22;1546;47.208;9.038;2023-04-25T09:20:06;9.70;99.90
3071;DHT22;1546;47.208;9.038;2023-04-25T09:22:35;10.00;99.90
3071;DHT22;1546;47.208;9.038;2023-04-25T09:25:03;10.10;99.90
3071;DHT22;1546;47.208;9.038;2023-04-25T09:27:32;10.10;99.90
3071;DHT22;1546;47.208;9.038;2023-04-25T09:30:00;10.00;99.90
3071;DHT22;1546;47.208;9.038;2023-04-25T09:32:27;10.20;99.90
3071;DHT22;1546;47.208;9.038;2023-04-25T09:34:55;10.50;99.90
3071;DHT22;1546;47.208;9.038;2023-04-25T09:37:23;10.50;99.90
3071;DHT22;1546;47.208;9.038;2023-04-25T09:39:53;10.80;99.90
3071;DHT22;1546;47.208;9.038;2023-04-25T09:42:22;10.90;99.90
3071;DHT22;1546;47.208;9.038;2023-04-25T09:44:52;10.70;99.90
3071;DHT22;1546;47.208;9.038;2023-04-25T09:47:19;10.40;99.90
3071;DHT22;1546;47.208;9.038;2023-04-25T09:49:47;10.40;99.90
3071;DHT22;1546;47.208;9.038;2023-04-25T09:52:15;10.20;99.90
3071;DHT22;1546;47.208;9.038;2023-04-25T09:54:42;10.10;99.90
3071;DHT22;1546;47.208;9.038;2023-04-25T09:57:13;10.00;99.90
3071;DHT22;1546;47.208;9.038;2023-04-25T09:59:43;9.80;99.90
3071;DHT22;1546;47.208;9.038;2023-04-25T10:02:11;9.60;99.90
3071;DHT22;1546;47.208;9.038;2023-04-25T10:04:39;9.40;99.90
3071;DHT22;1546;47.208;9.038;2023-04-25T10:07:07;9.20;99.90
3071;DHT22;1546;47.208;9.038;2023-04-25T10:09:37;9.20;99.90
3071;DHT22;1546;47.208;9.038;2023-04-25T10:12:05;9.20;99.90
3071;DHT22;1546;47.208;9.038;2023-04-25T10:14:34;9.00;99.90
3071;DHT22;1546;47.208;9.038;2023-04-25T10:17:01;8.80;99.90
3071;DHT22;1546;47.208;9.038;2023-04-25T10:19:28;8.70;99.90
3071;DHT22;1546;47.208;9.038;2023-04-25T10:22:02;8.60;99.90
3071;DHT22;1546;47.208;9.038;2023-04-25T10:24:30;8.50;99.90
3071;DHT22;1546;47.208;9.038;2023-04-25T10:26:58;8.60;99.90
3071;DHT22;1546;47.208;9.038;2023-04-25T10:29:26;8.60;99.90
3071;DHT22;1546;47.208;9.038;2023-04-25T10:31:54;8.90;99.90
3071;DHT22;1546;47.208;9.038;2023-04-25T10:34:24;9.10;99.90
3071;DHT22;1546;47.208;9.038;2023-04-25T10:36:53;9.10;99.90
3071;DHT22;1546;47.208;9.038;2023-04-25T10:39:24;9.10;99.90
3071;DHT22;1546;47.208;9.038;2023-04-25T10:41:57;9.20;99.90
3071;DHT22;1546;47.208;9.038;2023-04-25T10:44:26;9.20;99.90
3071;DHT22;1546;47.208;9.038;2023-04-25T10:46:56;9.30;99.90
3071;DHT22;1546;47.208;9.038;2023-04-25T10:49:34;9.20;99.90
3071;DHT22;1546;47.208;9.038;2023-04-25T10:52:15;8.80;99.90
3071;DHT22;1546;47.208;9.038;2023-04-25T10:54:46;8.70;99.90
3071;DHT22;1546;47.208;9.038;2023-04-25T10:57:32;8.70;99.90
3071;DHT22;1546;47.208;9.038;2023-04-25T11:00:07;8.90;99.90
3071;DHT22;1546;47.208;9.038;2023-04-25T11:02:45;9.10;99.90
3071;DHT22;1546;47.208;9.038;2023-04-25T11:05:22;9.00;99.90
3071;DHT22;1546;47.208;9.038;2023-04-25T11:07:51;9.20;99.90
3071;DHT22;1546;47.208;9.038;2023-04-25T11:10:18;9.50;99.90
3071;DHT22;1546;47.208;9.038;2023-04-25T11:12:46;9.90;99.90
3071;DHT22;1546;47.208;9.038;2023-04-25T11:15:13;10.30;99.90
3071;DHT22;1546;47.208;9.038;2023-04-25T11:17:40;10.60;99.90
3071;DHT22;1546;47.208;9.038;2023-04-25T11:20:09;11.00;99.90
3071;DHT22;1546;47.208;9.038;2023-04-25T11:22:38;11.50;99.90
3071;DHT22;1546;47.208;9.038;2023-04-25T11:25:07;11.70;99.90
3071;DHT22;1546;47.208;9.038;2023-04-25T11:27:37;11.60;99.90
3071;DHT22;1546;47.208;9.038;2023-04-25T11:30:13;11.20;99.90
3071;DHT22;1546;47.208;9.038;2023-04-25T11:32:41;11.10;99.90
3071;DHT22;1546;47.208;9.038;2023-04-25T11:35:10;11.20;99.90
3071;DHT22;1546;47.208;9.038;2023-04-25T11:37:38;11.20;99.90
3071;DHT22;1546;47.208;9.038;2023-04-25T11:40:06;10.80;99.90
3071;DHT22;1546;47.208;9.038;2023-04-25T11:42:36;10.50;99.90
3071;DHT22;1546;47.208;9.038;2023-04-25T11:45:05;10.10;99.90
3071;DHT22;1546;47.208;9.038;2023-04-25T11:47:32;9.70;99.90
3071;DHT22;1546;47.208;9.038;2023-04-25T11:50:00;9.30;99.90
3071;DHT22;1546;47.208;9.038;2023-04-25T11:52:37;9.30;99.90
3071;DHT22;1546;47.208;9.038;2023-04-25T11:55:06;9.30;99.90
3071;DHT22;1546;47.208;9.038;2023-04-25T11:57:34;9.40;99.90
3071;DHT22;1546;47.208;9.038;2023-04-25T12:00:09;9.60;99.90
3071;DHT22;1546;47.208;9.038;2023-04-25T12:02:40;9.60;99.90
3071;DHT22;1546;47.208;9.038;2023-04-25T12:05:08;9.70;99.90
3071;DHT22;1546;47.208;9.038;2023-04-25T12:07:37;9.80;99.90
3071;DHT22;1546;47.208;9.038;2023-04-25T12:10:05;10.10;99.90
3071;DHT22;1546;47.208;9.038;2023-04-25T12:12:33;10.30;99.90
3071;DHT22;1546;47.208;9.038;2023-04-25T12:15:09;10.50;99.90
3071;DHT22;1546;47.208;9.038;2023-04-25T12:17:36;10.60;99.90
3071;DHT22;1546;47.208;9.038;2023-04-25T12:20:09;10.50;99.90
3071;DHT22;1546;47.208;9.038;2023-04-25T12:22:40;10.20;99.90
3071;DHT22;1546;47.208;9.038;2023-04-25T12:25:10;10.10;99.90
3071;DHT22;1546;47.208;9.038;2023-04-25T12:27:37;10.10;99.90
3071;DHT22;1546;47.208;9.038;2023-04-25T12:30:06;9.80;99.90
3071;DHT22;1546;47.208;9.038;2023-04-25T12:32:34;9.50;99.90
3071;DHT22;1546;47.208;9.038;2023-04-25T12:35:01;9.40;99.90
3071;DHT22;1546;47.208;9.038;2023-04-25T12:37:28;9.60;99.90
3071;DHT22;1546;47.208;9.038;2023-04-25T12:39:56;10.20;99.90
3071;DHT22;1546;47.208;9.038;2023-04-25T12:42:23;10.60;99.90
3071;DHT22;1546;47.208;9.038;2023-04-25T12:44:50;10.80;99.90
3071;DHT22;1546;47.208;9.038;2023-04-25T12:47:17;11.20;99.90
3071;DHT22;1546;47.208;9.038;2023-04-25T12:49:44;11.40;99.90
3071;DHT22;1546;47.208;9.038;2023-04-25T12:52:11;11.70;99.90
3071;DHT22;1546;47.208;9.038;2023-04-25T12:54:38;12.10;99.90
3071;DHT22;1546;47.208;9.038;2023-04-25T12:57:06;12.10;99.00
3071;DHT22;1546;47.208;9.038;2023-04-25T12:59:33;12.30;99.90
3071;DHT22;1546;47.208;9.038;2023-04-25T13:02:00;13.00;99.40
3071;DHT22;1546;47.208;9.038;2023-04-25T13:04:27;13.60;97.10
3071;DHT22;1546;47.208;9.038;2023-04-25T13:06:54;13.90;96.50
3071;DHT22;1546;47.208;9.038;2023-04-25T13:09:21;15.10;95.20
3071;DHT22;1546;47.208;9.038;2023-04-25T13:11:48;16.40;94.30
3071;DHT22;1546;47.208;9.038;2023-04-25T13:14:16;17.20;94.30
3071;DHT22;1546;47.208;9.038;2023-04-25T13:16:43;17.30;91.80
3071;DHT22;1546;47.208;9.038;2023-04-25T13:19:11;17.50;93.30
3071;DHT22;1546;47.208;9.038;2023-04-25T13:21:38;18.00;89.00
3071;DHT22;1546;47.208;9.038;2023-04-25T13:24:05;17.80;90.50
3071;DHT22;1546;47.208;9.038;2023-04-25T13:26:32;17.00;90.50
3071;DHT22;1546;47.208;9.038;2023-04-25T13:28:59;16.60;90.20
3071;DHT22;1546;47.208;9.038;2023-04-25T13:31:31;16.50;90.00
3071;DHT22;1546;47.208;9.038;2023-04-25T13:33:58;16.60;91.50
3071;DHT22;1546;47.208;9.038;2023-04-25T13:36:25;16.10;89.60
3071;DHT22;1546;47.208;9.038;2023-04-25T13:38:53;16.20;89.70
3071;DHT22;1546;47.208;9.038;2023-04-25T13:41:20;16.70;90.30
3071;DHT22;1546;47.208;9.038;2023-04-25T13:43:46;16.90;91.20
3071;DHT22;1546;47.208;9.038;2023-04-25T13:46:14;17.00;89.20
3071;DHT22;1546;47.208;9.038;2023-04-25T13:48:43;17.10;90.00
3071;DHT22;1546;47.208;9.038;2023-04-25T13:51:15;17.00;86.70
3071;DHT22;1546;47.208;9.038;2023-04-25T13:53:43;16.60;87.80
3071;DHT22;1546;47.208;9.038;2023-04-25T13:56:10;16.80;85.30
3071;DHT22;1546;47.208;9.038;2023-04-25T13:58:38;17.20;85.60
3071;DHT22;1546;47.208;9.038;2023-04-25T14:01:04;17.20;82.30
3071;DHT22;1546;47.208;9.038;2023-04-25T14:03:31;16.90;84.90
3071;DHT22;1546;47.208;9.038;2023-04-25T14:06:00;16.10;89.20
3071;DHT22;1546;47.208;9.038;2023-04-25T14:08:27;15.50;90.50
3071;DHT22;1546;47.208;9.038;2023-04-25T14:10:54;14.80;91.40
3071;DHT22;1546;47.208;9.038;2023-04-25T14:13:21;14.80;92.00
3071;DHT22;1546;47.208;9.038;2023-04-25T14:15:49;14.70;91.50
3071;DHT22;1546;47.208;9.038;2023-04-25T14:18:17;14.40;91.70
3071;DHT22;1546;47.208;9.038;2023-04-25T14:20:44;14.20;92.40
3071;DHT22;1546;47.208;9.038;2023-04-25T14:23:12;14.20;91.90
3071;DHT22;1546;47.208;9.038;2023-04-25T14:25:39;14.50;92.50
3071;DHT22;1546;47.208;9.038;2023-04-25T14:28:07;14.70;92.10
3071;DHT22;1546;47.208;9.038;2023-04-25T14:30:34;14.70;91.90
3071;DHT22;1546;47.208;9.038;2023-04-25T14:33:01;14.20;91.10
3071;DHT22;1546;47.208;9.038;2023-04-25T14:35:28;13.90;92.10
3071;DHT22;1546;47.208;9.038;2023-04-25T14:37:55;14.00;92.40
3071;DHT22;1546;47.208;9.038;2023-04-25T14:40:23;14.20;92.20
3071;DHT22;1546;47.208;9.038;2023-04-25T14:42:50;14.30;91.70
3071;DHT22;1546;47.208;9.038;2023-04-25T14:45:17;14.40;91.40
3071;DHT22;1546;47.208;9.038;2023-04-25T14:47:44;14.30;91.20
3071;DHT22;1546;47.208;9.038;2023-04-25T14:50:11;14.20;90.50
3071;DHT22;1546;47.208;9.038;2023-04-25T14:52:38;14.10;90.90
3071;DHT22;1546;47.208;9.038;2023-04-25T14:55:05;13.80;91.80
3071;DHT22;1546;47.208;9.038;2023-04-25T14:57:34;13.50;92.50
3071;DHT22;1546;47.208;9.038;2023-04-25T15:00:02;13.40;93.20
3071;DHT22;1546;47.208;9.038;2023-04-25T15:02:30;13.60;94.10
3071;DHT22;1546;47.208;9.038;2023-04-25T15:04:57;13.60;94.40
3071;DHT22;1546;47.208;9.038;2023-04-25T15:07:24;13.60;95.80
3071;DHT22;1546;47.208;9.038;2023-04-25T15:09:51;13.40;95.90
3071;DHT22;1546;47.208;9.038;2023-04-25T15:12:18;13.30;94.50
3071;DHT22;1546;47.208;9.038;2023-04-25T15:14:47;13.10;95.20
3071;DHT22;1546;47.208;9.038;2023-04-25T15:17:15;12.70;95.20
3071;DHT22;1546;47.208;9.038;2023-04-25T15:19:42;12.30;96.80
3071;DHT22;1546;47.208;9.038;2023-04-25T15:22:09;11.90;96.90
3071;DHT22;1546;47.208;9.038;2023-04-25T15:24:36;11.70;97.70
3071;DHT22;1546;47.208;9.038;2023-04-25T15:27:03;11.50;96.00
3071;DHT22;1546;47.208;9.038;2023-04-25T15:29:31;11.30;95.80
3071;DHT22;1546;47.208;9.038;2023-04-25T15:31:59;10.90;97.70
3071;DHT22;1546;47.208;9.038;2023-04-25T15:34:26;10.60;99.90
3071;DHT22;1546;47.208;9.038;2023-04-25T15:36:53;10.30;99.90
3071;DHT22;1546;47.208;9.038;2023-04-25T15:39:20;10.00;99.90
3071;DHT22;1546;47.208;9.038;2023-04-25T15:41:47;9.40;99.90
3071;DHT22;1546;47.208;9.038;2023-04-25T15:44:14;8.70;99.90
3071;DHT22;1546;47.208;9.038;2023-04-25T15:46:41;8.60;99.90
3071;DHT22;1546;47.208;9.038;2023-04-25T15:49:10;8.60;99.90
3071;DHT22;1546;47.208;9.038;2023-04-25T15:51:37;8.40;99.90
3071;DHT22;1546;47.208;9.038;2023-04-25T15:54:04;8.40;99.90
3071;DHT22;1546;47.208;9.038;2023-04-25T15:56:31;8.40;99.90
3071;DHT22;1546;47.208;9.038;2023-04-25T15:58:58;8.30;99.90
3071;DHT22;1546;47.208;9.038;2023-04-25T16:01:25;8.10;99.90
3071;DHT22;1546;47.208;9.038;2023-04-25T16:03:55;8.00;99.90
3071;DHT22;1546;47.208;9.038;2023-04-25T16:06:25;7.90;99.90
3071;DHT22;1546;47.208;9.038;2023-04-25T16:08:53;7.90;99.90
3071;DHT22;1546;47.208;9.038;2023-04-25T16:11:20;7.90;99.90
3071;DHT22;1546;47.208;9.038;2023-04-25T16:13:47;7.90;99.90
3071;DHT22;1546;47.208;9.038;2023-04-25T16:16:14;7.80;99.90